createdAt,value
2022-10-24T00:00:46.098Z,4.34
2022-10-24T00:01:48.558Z,5.01
2022-10-24T00:02:50.492Z,5.35
2022-10-24T00:03:53.292Z,5.56
2022-10-24T00:04:55.424Z,4.81
2022-10-24T00:05:57.299Z,5.56
2022-10-24T00:06:59.496Z,4.71
2022-10-24T00:08:01.499Z,5.46
2022-10-24T00:09:03.844Z,4.91
2022-10-24T00:10:08.000Z,5.23
2022-10-24T00:11:13.576Z,4.91
2022-10-24T00:12:17.846Z,4.96
2022-10-24T00:13:21.725Z,5.30
2022-10-24T00:14:24.226Z,4.76
2022-10-24T00:15:26.121Z,4.91
2022-10-24T00:16:28.213Z,5.01
2022-10-24T00:17:30.168Z,4.69
2022-10-24T00:18:32.040Z,4.86
2022-10-24T00:19:33.960Z,4.49
2022-10-24T00:20:36.241Z,4.58
2022-10-24T00:21:38.453Z,5.65
2022-10-24T00:22:40.361Z,4.69
2022-10-24T00:23:42.668Z,4.78
2022-10-24T00:24:44.582Z,4.79
2022-10-24T00:25:47.157Z,4.73
2022-10-24T00:26:49.450Z,5.26
2022-10-24T00:27:51.489Z,4.87
2022-10-24T00:28:53.447Z,4.81
2022-10-24T00:29:55.683Z,4.79
2022-10-24T00:30:58.281Z,4.34
2022-10-24T00:32:00.170Z,4.57
2022-10-24T00:33:02.490Z,4.78
2022-10-24T00:34:05.188Z,5.57
2022-10-24T00:35:09.698Z,5.23
2022-10-24T00:36:15.276Z,4.52
2022-10-24T00:37:17.435Z,4.79
2022-10-24T00:38:19.665Z,4.41
2022-10-24T00:39:21.728Z,4.47
2022-10-24T00:40:24.171Z,4.74
2022-10-24T00:41:33.144Z,4.91
2022-10-24T00:42:35.702Z,4.26
2022-10-24T00:43:37.604Z,4.72
2022-10-24T00:44:41.169Z,4.59
2022-10-24T00:45:49.788Z,4.41
2022-10-24T00:46:55.588Z,4.52
2022-10-24T00:47:57.766Z,4.49
2022-10-24T00:49:00.311Z,4.78
2022-10-24T00:50:06.515Z,4.33
2022-10-24T00:51:24.773Z,4.25
2022-10-24T00:52:36.521Z,4.52
2022-10-24T00:53:44.982Z,4.68
2022-10-24T00:54:48.559Z,5.12
2022-10-24T00:55:54.201Z,4.31
2022-10-24T00:57:00.086Z,4.52
2022-10-24T00:59:10.355Z,4.47
2022-10-24T01:00:19.568Z,5.11
2022-10-24T01:01:23.867Z,4.91
2022-10-24T01:02:27.015Z,5.00
2022-10-24T01:03:28.909Z,4.58
2022-10-24T01:04:30.818Z,4.45
2022-10-24T01:05:36.738Z,4.32
2022-10-24T01:06:45.304Z,4.18
2022-10-24T01:08:21.438Z,4.17
2022-10-24T01:09:44.360Z,4.36
2022-10-24T01:10:56.444Z,4.84
2022-10-24T01:12:11.366Z,4.93
2022-10-24T01:13:25.993Z,5.19
2022-10-24T01:14:37.566Z,5.28
2022-10-24T01:15:52.599Z,5.07
2022-10-24T01:17:16.650Z,4.52
2022-10-24T01:18:31.706Z,4.52
2022-10-24T01:19:43.529Z,4.29
2022-10-24T01:20:55.143Z,5.07
2022-10-24T01:22:01.016Z,4.51
2022-10-24T01:23:22.326Z,4.54
2022-10-24T01:24:40.068Z,4.71
2022-10-24T01:26:01.011Z,4.23
2022-10-24T01:27:22.059Z,3.96
2022-10-24T01:28:34.172Z,4.66
2022-10-24T01:29:55.005Z,4.66
2022-10-24T01:31:10.147Z,4.76
2022-10-24T01:32:33.769Z,4.37
2022-10-24T01:33:39.553Z,4.06
2022-10-24T01:34:45.337Z,4.54
2022-10-24T01:35:59.958Z,4.48
2022-10-24T01:38:33.774Z,4.58
2022-10-24T01:39:39.514Z,4.34
2022-10-24T01:41:04.015Z,4.52
2022-10-24T01:42:08.967Z,4.22
2022-10-24T01:43:14.645Z,4.11
2022-10-24T01:44:20.459Z,4.94
2022-10-24T01:45:26.293Z,6.31
2022-10-24T01:46:34.880Z,4.02
2022-10-24T01:47:40.563Z,4.66
2022-10-24T01:48:47.264Z,4.14
2022-10-24T01:49:52.977Z,3.93
2022-10-24T01:50:57.391Z,4.10
2022-10-24T01:52:03.256Z,3.94
2022-10-24T01:53:08.375Z,4.12
2022-10-24T01:54:12.371Z,3.94
2022-10-24T01:55:14.805Z,4.01
2022-10-24T01:56:17.122Z,4.28
2022-10-24T01:57:19.530Z,4.27
2022-10-24T01:58:22.256Z,4.15
2022-10-24T01:59:30.724Z,4.52
2022-10-24T02:00:33.589Z,4.32
2022-10-24T02:01:38.414Z,4.47
2022-10-24T02:02:43.684Z,4.62
2022-10-24T02:03:58.899Z,4.45
2022-10-24T02:05:16.317Z,4.56
2022-10-24T02:06:25.225Z,4.08
2022-10-24T02:07:29.727Z,4.74
2022-10-24T02:08:35.404Z,4.16
2022-10-24T02:09:39.608Z,4.16
2022-10-24T02:10:54.439Z,4.46
2022-10-24T02:11:59.193Z,4.60
2022-10-24T02:13:10.941Z,4.67
2022-10-24T02:15:39.148Z,4.92
2022-10-24T02:16:43.646Z,4.46
2022-10-24T02:17:47.599Z,4.96
2022-10-24T02:18:52.604Z,4.25
2022-10-24T02:19:55.123Z,4.37
2022-10-24T02:21:00.984Z,5.02
2022-10-24T02:22:15.607Z,5.07
2022-10-24T02:23:32.967Z,4.98
2022-10-24T02:24:53.793Z,5.88
2022-10-24T02:26:01.740Z,4.99
2022-10-24T02:27:24.112Z,5.41
2022-10-24T02:28:29.791Z,5.26
2022-10-24T02:29:41.286Z,5.54
2022-10-24T02:30:47.584Z,4.46
2022-10-24T02:31:56.921Z,4.63
2022-10-24T02:32:59.380Z,4.80
2022-10-24T02:34:05.845Z,5.10
2022-10-24T02:35:10.625Z,5.21
2022-10-24T02:36:16.649Z,4.56
2022-10-24T02:37:20.127Z,5.31
2022-10-24T02:38:32.006Z,5.64
2022-10-24T02:39:36.104Z,5.38
2022-10-24T02:40:40.507Z,5.25
2022-10-24T02:41:44.810Z,5.52
2022-10-24T02:42:50.642Z,6.01
2022-10-24T02:43:55.338Z,5.55
2022-10-24T02:44:58.863Z,5.77
2022-10-24T02:46:02.632Z,5.37
2022-10-24T02:47:07.699Z,5.34
2022-10-24T02:48:13.511Z,5.42
2022-10-24T02:49:16.352Z,5.31
2022-10-24T02:50:19.685Z,5.01
2022-10-24T02:51:23.849Z,5.34
2022-10-24T02:52:27.116Z,5.39
2022-10-24T02:53:29.227Z,5.39
2022-10-24T02:54:31.205Z,4.83
2022-10-24T02:55:33.149Z,5.14
2022-10-24T02:56:39.043Z,6.07
2022-10-24T02:57:40.993Z,6.06
2022-10-24T02:58:43.330Z,6.08
2022-10-24T02:59:45.607Z,5.74
2022-10-24T03:00:47.951Z,5.63
2022-10-24T03:01:50.240Z,7.43
2022-10-24T03:02:52.268Z,6.19
2022-10-24T03:03:54.259Z,6.45
2022-10-24T03:04:56.174Z,5.79
2022-10-24T03:05:58.124Z,5.97
2022-10-24T03:07:00.322Z,5.78
2022-10-24T03:08:03.232Z,5.21
2022-10-24T03:09:05.327Z,5.71
2022-10-24T03:10:08.519Z,5.09
2022-10-24T03:11:10.488Z,5.69
2022-10-24T03:12:16.933Z,6.62
2022-10-24T03:13:18.981Z,6.05
2022-10-24T03:14:20.967Z,6.01
2022-10-24T03:15:23.895Z,6.14
2022-10-24T03:16:26.239Z,5.41
2022-10-24T03:17:28.434Z,5.87
2022-10-24T03:18:30.604Z,6.12
2022-10-24T03:19:32.613Z,5.84
2022-10-24T03:20:34.886Z,6.23
2022-10-24T03:21:36.752Z,6.49
2022-10-24T03:22:38.657Z,5.57
2022-10-24T03:23:40.712Z,5.18
2022-10-24T03:24:44.536Z,5.70
2022-10-24T03:25:46.424Z,5.28
2022-10-24T03:26:48.699Z,5.61
2022-10-24T03:27:50.783Z,5.95
2022-10-24T03:28:52.656Z,5.88
2022-10-24T03:29:54.749Z,5.41
2022-10-24T03:30:57.146Z,5.63
2022-10-24T03:32:00.449Z,6.12
2022-10-24T03:33:02.577Z,6.18
2022-10-24T03:34:04.444Z,5.75
2022-10-24T03:35:11.688Z,6.08
2022-10-24T03:36:12.429Z,5.67
2022-10-24T03:37:14.559Z,5.62
2022-10-24T03:38:19.949Z,5.73
2022-10-24T03:39:22.499Z,5.58
2022-10-24T03:40:24.546Z,5.49
2022-10-24T03:41:27.412Z,5.55
2022-10-24T03:42:29.882Z,5.46
2022-10-24T03:43:31.975Z,5.99
2022-10-24T03:44:34.038Z,6.05
2022-10-24T03:45:36.117Z,6.06
2022-10-24T03:46:38.241Z,5.55
2022-10-24T03:47:40.299Z,6.70
2022-10-24T03:48:42.185Z,5.90
2022-10-24T03:49:44.043Z,6.09
2022-10-24T03:50:46.349Z,5.65
2022-10-24T03:51:48.437Z,5.89
2022-10-24T03:52:50.416Z,5.68
2022-10-24T03:53:52.309Z,5.81
2022-10-24T03:54:54.199Z,5.66
2022-10-24T03:55:56.250Z,5.37
2022-10-24T03:56:58.425Z,5.64
2022-10-24T03:58:00.303Z,6.07
2022-10-24T03:59:03.140Z,6.17
2022-10-24T04:00:06.749Z,7.38
2022-10-24T04:01:09.001Z,6.30
2022-10-24T04:02:11.005Z,5.96
2022-10-24T04:03:12.880Z,6.31
2022-10-24T04:04:14.750Z,6.67
2022-10-24T04:05:17.394Z,6.65
2022-10-24T04:06:20.068Z,5.66
2022-10-24T04:07:22.188Z,6.16
2022-10-24T04:08:24.439Z,5.97
2022-10-24T04:09:27.464Z,5.73
2022-10-24T04:10:29.724Z,6.03
2022-10-24T04:11:31.947Z,6.33
2022-10-24T04:12:33.942Z,5.53
2022-10-24T04:13:36.102Z,5.77
2022-10-24T04:14:38.147Z,6.30
2022-10-24T04:15:40.363Z,6.03
2022-10-24T04:16:43.080Z,6.35
2022-10-24T04:17:45.392Z,6.37
2022-10-24T04:18:47.567Z,5.52
2022-10-24T04:19:49.440Z,6.27
2022-10-24T04:20:51.418Z,5.69
2022-10-24T04:21:53.630Z,6.77
2022-10-24T04:22:55.671Z,6.51
2022-10-24T04:23:57.557Z,6.39
2022-10-24T04:24:59.646Z,6.65
2022-10-24T04:26:01.734Z,6.75
2022-10-24T04:27:04.156Z,6.21
2022-10-24T04:28:06.338Z,6.43
2022-10-24T04:29:08.378Z,6.64
2022-10-24T04:30:16.551Z,6.29
2022-10-24T04:31:20.925Z,6.53
2022-10-24T04:32:21.782Z,6.58
2022-10-24T04:33:24.845Z,6.51
2022-10-24T04:34:26.964Z,6.21
2022-10-24T04:35:29.159Z,6.84
2022-10-24T04:36:32.723Z,6.41
2022-10-24T04:37:34.921Z,6.62
2022-10-24T04:38:37.203Z,6.49
2022-10-24T04:39:39.653Z,6.57
2022-10-24T04:40:51.655Z,6.43
2022-10-24T04:41:53.581Z,6.81
2022-10-24T04:42:55.821Z,6.92
2022-10-24T04:43:58.099Z,6.16
2022-10-24T04:45:00.064Z,6.51
2022-10-24T04:46:02.371Z,6.65
2022-10-24T04:47:04.455Z,7.05
2022-10-24T04:48:06.843Z,6.21
2022-10-24T04:49:08.730Z,6.51
2022-10-24T04:50:11.429Z,6.77
2022-10-24T04:51:17.304Z,8.12
2022-10-24T04:52:17.954Z,6.85
2022-10-24T04:53:20.100Z,6.65
2022-10-24T04:54:22.306Z,7.74
2022-10-24T04:55:24.300Z,7.34
2022-10-24T04:56:26.536Z,7.21
2022-10-24T04:57:28.399Z,7.25
2022-10-24T04:58:30.568Z,6.81
2022-10-24T04:59:32.535Z,6.33
2022-10-24T05:00:36.879Z,6.59
2022-10-24T05:01:39.182Z,7.73
2022-10-24T05:02:41.712Z,6.99
2022-10-24T05:03:43.956Z,7.45
2022-10-24T05:04:45.868Z,7.09
2022-10-24T05:05:49.256Z,7.87
2022-10-24T05:06:51.537Z,6.49
2022-10-24T05:07:53.662Z,6.59
2022-10-24T05:08:55.855Z,7.03
2022-10-24T05:09:58.503Z,7.15
2022-10-24T05:11:00.715Z,7.21
2022-10-24T05:12:03.674Z,6.59
2022-10-24T05:13:05.626Z,6.34
2022-10-24T05:14:07.508Z,6.93
2022-10-24T05:15:11.546Z,6.45
2022-10-24T05:16:15.169Z,6.53
2022-10-24T05:17:17.479Z,7.21
2022-10-24T05:18:19.597Z,6.63
2022-10-24T05:19:22.575Z,7.21
2022-10-24T05:20:25.756Z,6.78
2022-10-24T05:21:27.675Z,7.86
2022-10-24T05:22:29.838Z,6.79
2022-10-24T05:23:32.038Z,6.98
2022-10-24T05:24:34.080Z,7.02
2022-10-24T05:25:36.440Z,7.21
2022-10-24T05:26:38.649Z,6.88
2022-10-24T05:27:40.636Z,7.30
2022-10-24T05:28:42.632Z,7.04
2022-10-24T05:29:44.506Z,7.38
2022-10-24T05:30:46.685Z,7.21
2022-10-24T05:31:48.773Z,6.69
2022-10-24T05:32:50.653Z,7.48
2022-10-24T05:33:52.676Z,6.88
2022-10-24T05:34:54.782Z,6.73
2022-10-24T05:35:56.905Z,6.63
2022-10-24T05:36:58.974Z,7.54
2022-10-24T05:38:01.195Z,7.15
2022-10-24T05:39:03.547Z,6.83
2022-10-24T05:40:08.030Z,6.38
2022-10-24T05:41:10.493Z,7.31
2022-10-24T05:42:12.747Z,7.05
2022-10-24T05:43:15.934Z,7.99
2022-10-24T05:44:17.849Z,7.06
2022-10-24T05:45:19.850Z,7.02
2022-10-24T05:46:21.883Z,7.89
2022-10-24T05:47:25.757Z,6.99
2022-10-24T05:48:28.512Z,7.29
2022-10-24T05:49:30.636Z,6.81
2022-10-24T05:50:35.346Z,7.78
2022-10-24T05:51:37.253Z,7.14
2022-10-24T05:52:43.270Z,6.92
2022-10-24T05:53:43.375Z,7.49
2022-10-24T05:54:55.352Z,7.15
2022-10-24T05:55:49.358Z,7.93
2022-10-24T05:56:51.945Z,7.55
2022-10-24T05:57:53.887Z,7.39
2022-10-24T05:58:57.811Z,7.89
2022-10-24T05:59:59.886Z,7.66
2022-10-24T06:01:01.836Z,7.47
2022-10-24T06:02:03.990Z,8.26
2022-10-24T06:03:05.988Z,7.49
2022-10-24T06:04:11.359Z,8.40
2022-10-24T06:05:13.353Z,7.61
2022-10-24T06:06:15.888Z,7.81
2022-10-24T06:07:18.679Z,7.97
2022-10-24T06:08:21.353Z,7.26
2022-10-24T06:09:23.415Z,7.85
2022-10-24T06:10:25.617Z,7.24
2022-10-24T06:11:27.706Z,8.39
2022-10-24T06:12:29.587Z,8.21
2022-10-24T06:13:35.273Z,7.29
2022-10-24T06:14:36.567Z,6.72
2022-10-24T06:15:42.537Z,7.51
2022-10-24T06:16:44.706Z,7.93
2022-10-24T06:17:46.601Z,7.91
2022-10-24T06:18:48.470Z,7.76
2022-10-24T06:19:50.437Z,8.44
2022-10-24T06:20:55.477Z,7.87
2022-10-24T06:21:56.863Z,7.66
2022-10-24T06:22:58.751Z,8.19
2022-10-24T06:24:00.750Z,8.62
2022-10-24T06:25:04.177Z,9.43
2022-10-24T06:26:08.176Z,8.28
2022-10-24T06:27:10.498Z,7.95
2022-10-24T06:28:12.452Z,8.65
2022-10-24T06:29:14.940Z,9.30
2022-10-24T06:30:17.840Z,8.98
2022-10-24T06:31:19.753Z,8.37
2022-10-24T06:32:21.632Z,8.15
2022-10-24T06:33:23.508Z,7.94
2022-10-24T06:34:25.514Z,7.89
2022-10-24T06:35:27.881Z,7.76
2022-10-24T06:36:31.525Z,7.92
2022-10-24T06:37:34.262Z,7.31
2022-10-24T06:38:37.074Z,7.71
2022-10-24T06:39:41.001Z,7.98
2022-10-24T06:40:43.088Z,8.19
2022-10-24T06:41:45.197Z,7.88
2022-10-24T06:42:47.360Z,7.96
2022-10-24T06:43:49.265Z,7.71
2022-10-24T06:44:51.266Z,7.71
2022-10-24T06:45:53.331Z,7.63
2022-10-24T06:46:55.516Z,8.49
2022-10-24T06:47:57.617Z,7.31
2022-10-24T06:48:59.502Z,7.22
2022-10-24T06:50:01.434Z,6.99
2022-10-24T06:51:04.362Z,7.63
2022-10-24T06:52:06.249Z,8.09
2022-10-24T06:53:10.088Z,7.63
2022-10-24T06:54:12.913Z,7.26
2022-10-24T06:55:15.269Z,6.55
2022-10-24T06:56:18.168Z,8.10
2022-10-24T06:57:20.065Z,7.57
2022-10-24T06:58:21.967Z,7.58
2022-10-24T06:59:24.322Z,7.97
2022-10-24T07:01:30.569Z,6.71
2022-10-24T07:02:32.990Z,8.21
2022-10-24T07:03:35.412Z,7.51
2022-10-24T07:04:37.679Z,6.75
2022-10-24T07:05:39.704Z,6.63
2022-10-24T07:06:41.860Z,8.14
2022-10-24T07:07:44.338Z,7.31
2022-10-24T07:08:47.902Z,7.66
2022-10-24T07:09:55.700Z,6.97
2022-10-24T07:10:57.799Z,7.08
2022-10-24T07:11:59.963Z,6.88
2022-10-24T07:13:01.854Z,7.29
2022-10-24T07:14:06.906Z,7.26
2022-10-24T07:15:09.355Z,7.25
2022-10-24T07:16:12.534Z,7.56
2022-10-24T07:17:16.475Z,7.71
2022-10-24T07:18:20.707Z,6.47
2022-10-24T07:19:22.855Z,7.12
2022-10-24T07:20:26.013Z,7.42
2022-10-24T07:21:30.808Z,7.41
2022-10-24T07:22:33.423Z,7.41
2022-10-24T07:23:35.649Z,7.77
2022-10-24T07:24:37.630Z,7.79
2022-10-24T07:25:41.576Z,7.41
2022-10-24T07:26:43.646Z,7.18
2022-10-24T07:27:45.858Z,7.03
2022-10-24T07:28:48.387Z,8.23
2022-10-24T07:29:50.766Z,7.11
2022-10-24T07:30:53.020Z,7.67
2022-10-24T07:31:54.994Z,7.11
2022-10-24T07:32:57.091Z,7.45
2022-10-24T07:34:01.576Z,7.11
2022-10-24T07:35:04.263Z,7.24
2022-10-24T07:36:07.260Z,6.15
2022-10-24T07:37:09.265Z,6.82
2022-10-24T07:38:13.312Z,6.93
2022-10-24T07:39:15.017Z,7.26
2022-10-24T07:40:17.381Z,6.85
2022-10-24T07:41:20.182Z,6.57
2022-10-24T07:42:22.155Z,6.96
2022-10-24T07:43:24.262Z,7.04
2022-10-24T07:44:26.361Z,7.07
2022-10-24T07:45:28.864Z,7.17
2022-10-24T07:46:31.661Z,7.08
2022-10-24T07:47:33.549Z,7.25
2022-10-24T07:48:36.355Z,6.32
2022-10-24T07:49:38.743Z,6.92
2022-10-24T07:50:43.194Z,6.31
2022-10-24T07:51:45.135Z,6.47
2022-10-24T07:52:47.139Z,6.69
2022-10-24T07:53:49.703Z,6.82
2022-10-24T07:54:55.002Z,7.28
2022-10-24T07:55:58.739Z,7.23
2022-10-24T07:57:01.115Z,9.36
2022-10-24T07:58:03.274Z,9.15
2022-10-24T07:59:09.357Z,9.16
2022-10-24T08:00:11.349Z,10.51
2022-10-24T08:01:18.993Z,8.61
2022-10-24T08:02:21.201Z,7.92
2022-10-24T08:03:23.173Z,10.52
2022-10-24T08:04:25.055Z,9.74
2022-10-24T08:05:27.265Z,8.77
2022-10-24T08:06:31.278Z,7.80
2022-10-24T08:07:37.057Z,8.06
2022-10-24T08:08:39.689Z,6.80
2022-10-24T08:09:46.154Z,6.61
2022-10-24T08:10:48.428Z,7.14
2022-10-24T08:11:57.395Z,7.63
2022-10-24T08:12:55.506Z,7.66
2022-10-24T08:13:58.134Z,7.74
2022-10-24T08:15:00.029Z,7.45
2022-10-24T08:16:04.676Z,7.08
2022-10-24T08:17:06.864Z,7.58
2022-10-24T08:18:09.040Z,8.05
2022-10-24T08:19:12.326Z,9.19
2022-10-24T08:20:14.914Z,7.21
2022-10-24T08:21:18.661Z,7.22
2022-10-24T08:22:20.878Z,8.13
2022-10-24T08:23:25.445Z,6.05
2022-10-24T08:24:27.535Z,6.44
2022-10-24T08:25:30.355Z,6.33
2022-10-24T08:26:33.744Z,7.06
2022-10-24T08:27:36.085Z,7.11
2022-10-24T08:28:39.261Z,6.96
2022-10-24T08:29:41.204Z,6.33
2022-10-24T08:30:43.530Z,6.73
2022-10-24T08:31:47.672Z,6.81
2022-10-24T08:32:49.617Z,7.00
2022-10-24T08:33:53.366Z,6.96
2022-10-24T08:34:55.561Z,6.59
2022-10-24T08:36:06.965Z,7.95
2022-10-24T08:38:10.955Z,6.91
2022-10-24T08:39:13.216Z,7.44
2022-10-24T08:40:19.955Z,6.93
2022-10-24T08:41:35.131Z,7.34
2022-10-24T08:42:37.533Z,6.18
2022-10-24T08:43:39.459Z,5.79
2022-10-24T08:44:44.128Z,6.00
2022-10-24T08:45:59.159Z,5.08
2022-10-24T08:48:47.622Z,6.94
2022-10-24T08:49:53.802Z,6.46
2022-10-24T08:52:34.044Z,5.86
2022-10-24T08:53:37.250Z,6.19
2022-10-24T08:54:41.751Z,5.78
2022-10-24T08:55:50.982Z,6.56
2022-10-24T08:56:55.114Z,7.19
2022-10-24T08:58:01.192Z,6.96
2022-10-24T08:59:05.550Z,6.49
2022-10-24T09:00:18.595Z,6.44
2022-10-24T09:01:33.353Z,6.42
2022-10-24T09:02:37.769Z,6.53
2022-10-24T09:04:01.850Z,6.22
2022-10-24T09:04:57.401Z,6.51
2022-10-24T09:06:03.174Z,6.41
2022-10-24T09:07:06.871Z,6.34
2022-10-24T09:08:20.333Z,5.98
2022-10-24T09:09:29.064Z,6.48
2022-10-24T09:10:38.220Z,6.38
2022-10-24T09:11:55.946Z,6.31
2022-10-24T09:12:58.033Z,6.24
2022-10-24T09:14:02.563Z,6.67
2022-10-24T09:15:07.523Z,5.84
2022-10-24T09:16:18.511Z,6.66
2022-10-24T09:17:35.075Z,7.56
2022-10-24T09:18:40.114Z,8.34
2022-10-24T09:19:45.879Z,7.39
2022-10-24T09:20:49.732Z,7.71
2022-10-24T09:21:54.279Z,7.12
2022-10-24T09:23:02.896Z,7.63
2022-10-24T09:24:06.459Z,7.56
2022-10-24T09:25:12.046Z,6.40
2022-10-24T09:26:30.790Z,7.32
2022-10-24T09:28:46.367Z,6.47
2022-10-24T09:29:48.760Z,6.10
2022-10-24T09:30:51.813Z,6.43
2022-10-24T09:31:54.661Z,6.15
2022-10-24T09:33:00.133Z,6.43
2022-10-24T09:34:02.043Z,5.89
2022-10-24T09:35:07.738Z,6.69
2022-10-24T09:36:13.377Z,6.42
2022-10-24T09:37:46.929Z,7.16
2022-10-24T09:38:48.184Z,7.54
2022-10-24T09:39:54.164Z,7.37
2022-10-24T09:40:58.709Z,7.98
2022-10-24T09:42:01.721Z,7.26
2022-10-24T09:43:16.247Z,7.16
2022-10-24T09:44:36.924Z,7.38
2022-10-24T09:46:53.216Z,8.04
2022-10-24T09:48:01.969Z,8.19
2022-10-24T09:49:14.155Z,9.02
2022-10-24T09:50:22.277Z,7.38
2022-10-24T09:51:40.301Z,7.47
2022-10-24T09:52:46.083Z,7.31
2022-10-24T09:54:07.181Z,7.51
2022-10-24T09:55:22.008Z,8.48
2022-10-24T09:56:34.247Z,8.74
2022-10-24T09:57:40.427Z,8.99
2022-10-24T09:58:42.650Z,8.30
2022-10-24T10:00:00.412Z,8.50
2022-10-24T10:01:09.288Z,8.11
2022-10-24T10:02:29.374Z,8.08
2022-10-24T10:03:33.139Z,7.74
2022-10-24T10:04:36.862Z,8.32
2022-10-24T10:06:55.910Z,8.08
2022-10-24T10:08:01.921Z,8.19
2022-10-24T10:09:07.706Z,8.27
2022-10-24T10:10:26.450Z,9.22
2022-10-24T10:11:35.069Z,8.78
2022-10-24T10:12:40.064Z,8.57
2022-10-24T10:13:50.686Z,7.63
2022-10-24T10:14:53.683Z,7.37
2022-10-24T10:16:01.729Z,7.27
2022-10-24T10:17:06.075Z,8.26
2022-10-24T10:18:30.448Z,8.21
2022-10-24T10:19:36.177Z,7.49
2022-10-24T10:20:42.304Z,7.87
2022-10-24T10:22:04.281Z,9.14
2022-10-24T10:23:31.673Z,8.11
2022-10-24T10:24:42.877Z,8.77
2022-10-24T10:25:45.639Z,8.59
2022-10-24T10:26:48.625Z,9.13
2022-10-24T10:27:52.910Z,7.76
2022-10-24T10:29:11.124Z,8.41
2022-10-24T10:30:19.609Z,9.39
2022-10-24T10:31:28.418Z,9.43
2022-10-24T10:34:16.160Z,8.48
2022-10-24T10:35:44.441Z,9.13
2022-10-24T10:37:06.110Z,9.71
2022-10-24T10:38:24.443Z,8.77
2022-10-24T10:39:35.989Z,9.72
2022-10-24T10:42:16.371Z,9.38
2022-10-24T10:43:28.216Z,11.84
2022-10-24T10:45:10.907Z,11.16
2022-10-24T10:46:26.345Z,11.01
2022-10-24T10:47:44.565Z,12.19
2022-10-24T10:49:08.694Z,14.91
2022-10-24T10:50:23.776Z,16.72
2022-10-24T10:51:35.807Z,12.98
2022-10-24T10:52:44.790Z,12.15
2022-10-24T10:53:57.088Z,14.32
2022-10-24T10:55:24.032Z,14.29
2022-10-24T10:56:52.075Z,28.52
2022-10-24T10:58:12.296Z,18.03
2022-10-24T10:59:41.416Z,15.65
2022-10-24T11:00:56.879Z,15.04
2022-10-24T11:02:18.116Z,15.99
2022-10-24T11:03:39.047Z,16.02
2022-10-24T11:04:53.539Z,16.64
2022-10-24T11:06:14.711Z,15.87
2022-10-24T11:08:55.584Z,14.80
2022-10-24T11:10:01.385Z,15.08
2022-10-24T11:11:09.815Z,15.89
2022-10-24T11:12:15.755Z,16.12
2022-10-24T11:13:34.255Z,17.61
2022-10-24T11:14:52.177Z,16.59
2022-10-24T11:15:57.947Z,15.96
2022-10-24T11:17:06.630Z,16.64
2022-10-24T11:18:15.272Z,17.16
2022-10-24T11:19:30.388Z,16.53
2022-10-24T11:22:04.143Z,15.49
2022-10-24T11:23:25.037Z,15.55
2022-10-24T11:24:30.231Z,14.25
2022-10-24T11:25:54.899Z,14.36
2022-10-24T11:28:32.686Z,15.69
2022-10-24T11:29:44.450Z,15.62
2022-10-24T11:30:50.374Z,15.35
2022-10-24T11:31:59.252Z,15.33
2022-10-24T11:33:04.446Z,15.49
2022-10-24T11:34:19.363Z,16.84
2022-10-24T11:35:31.169Z,17.54
2022-10-24T11:36:58.199Z,16.18
2022-10-24T11:38:15.668Z,15.38
2022-10-24T11:39:27.109Z,13.11
2022-10-24T11:40:30.496Z,12.51
2022-10-24T11:41:45.413Z,13.91
2022-10-24T11:43:03.534Z,13.30
2022-10-24T11:44:24.618Z,12.37
2022-10-24T11:45:45.626Z,12.39
2022-10-24T11:46:54.822Z,12.81
2022-10-24T11:48:25.950Z,12.78
2022-10-24T11:49:35.159Z,12.55
2022-10-24T11:50:47.146Z,11.80
2022-10-24T11:51:53.437Z,12.61
2022-10-24T11:53:17.686Z,12.34
2022-10-24T11:54:26.450Z,12.23
2022-10-24T11:55:38.348Z,12.56
2022-10-24T11:57:57.322Z,12.46
2022-10-24T11:59:02.756Z,12.14
2022-10-24T12:00:05.838Z,11.06
2022-10-24T12:01:11.679Z,10.98
2022-10-24T12:02:38.933Z,11.73
2022-10-24T12:04:14.920Z,12.24
2022-10-24T12:05:23.357Z,10.61
2022-10-24T12:06:49.236Z,9.94
2022-10-24T12:07:55.585Z,10.09
2022-10-24T12:09:04.441Z,9.59
2022-10-24T12:10:23.193Z,9.71
2022-10-24T12:11:45.913Z,9.26
2022-10-24T12:13:17.443Z,9.92
2022-10-24T12:14:32.466Z,10.08
2022-10-24T12:15:47.902Z,11.98
2022-10-24T12:16:56.987Z,12.80
2022-10-24T12:18:25.136Z,12.00
2022-10-24T12:19:28.531Z,11.96
2022-10-24T12:20:32.166Z,10.89
2022-10-24T12:21:40.756Z,10.85
2022-10-24T12:22:44.856Z,11.77
2022-10-24T12:23:58.998Z,11.31
2022-10-24T12:25:20.075Z,10.77
2022-10-24T12:26:29.378Z,11.60
2022-10-24T12:27:37.623Z,10.97
2022-10-24T12:28:41.173Z,11.52
2022-10-24T12:29:43.381Z,12.49
2022-10-24T12:31:06.149Z,11.25
2022-10-24T12:32:42.646Z,10.72
2022-10-24T12:33:48.413Z,11.84
2022-10-24T12:35:25.351Z,11.84
2022-10-24T12:36:04.740Z,11.24
2022-10-24T12:37:22.462Z,11.84
2022-10-24T12:38:31.449Z,12.03
2022-10-24T12:39:42.267Z,12.08
2022-10-24T12:40:48.469Z,13.01
2022-10-24T12:41:50.446Z,11.59
2022-10-24T12:42:58.917Z,10.91
2022-10-24T12:44:34.310Z,10.85
2022-10-24T12:45:36.563Z,11.47
2022-10-24T12:46:42.475Z,10.70
2022-10-24T12:49:01.387Z,10.41
2022-10-24T12:50:25.927Z,11.51
2022-10-24T12:51:37.254Z,11.44
2022-10-24T12:52:46.274Z,10.63
2022-10-24T12:54:13.797Z,10.63
2022-10-24T12:55:40.074Z,9.66
2022-10-24T12:56:55.179Z,9.57
2022-10-24T12:57:57.664Z,8.83
2022-10-24T12:59:18.768Z,9.49
2022-10-24T13:00:27.837Z,10.07
2022-10-24T13:01:33.350Z,9.17
2022-10-24T13:02:42.837Z,8.89
2022-10-24T13:03:58.043Z,9.34
2022-10-24T13:05:23.548Z,9.08
2022-10-24T13:06:40.224Z,8.90
2022-10-24T13:08:04.884Z,10.19
2022-10-24T13:09:30.776Z,9.86
2022-10-24T13:11:04.153Z,8.33
2022-10-24T13:13:45.421Z,9.44
2022-10-24T13:14:54.366Z,10.67
2022-10-24T13:16:18.049Z,10.03
2022-10-24T13:17:56.101Z,9.82
2022-10-24T13:19:08.050Z,9.80
2022-10-24T13:20:29.196Z,9.72
2022-10-24T13:21:54.774Z,8.94
2022-10-24T13:23:03.115Z,8.69
2022-10-24T13:24:38.855Z,9.92
2022-10-24T13:25:42.384Z,10.00
2022-10-24T13:26:51.413Z,10.52
2022-10-24T13:28:23.054Z,10.56
2022-10-24T13:29:32.062Z,10.32
2022-10-24T13:30:34.185Z,9.57
2022-10-24T13:31:38.956Z,10.07
2022-10-24T13:32:40.874Z,11.18
2022-10-24T13:33:44.929Z,9.87
2022-10-24T13:34:53.911Z,9.58
2022-10-24T13:36:12.440Z,10.19
2022-10-24T13:37:27.488Z,12.02
2022-10-24T13:38:31.010Z,11.50
2022-10-24T13:39:39.523Z,11.59
2022-10-24T13:40:43.877Z,12.06
2022-10-24T13:41:52.398Z,12.23
2022-10-24T13:43:09.568Z,12.19
2022-10-24T13:44:18.264Z,12.11
2022-10-24T13:45:43.592Z,10.67
2022-10-24T13:46:54.486Z,11.12
2022-10-24T13:48:03.030Z,10.67
2022-10-24T13:49:06.198Z,12.26
2022-10-24T13:50:30.568Z,11.81
2022-10-24T13:51:45.535Z,11.80
2022-10-24T13:52:51.219Z,11.14
2022-10-24T13:54:03.018Z,11.26
2022-10-24T13:55:14.938Z,11.40
2022-10-24T13:56:19.181Z,11.41
2022-10-24T13:57:30.632Z,11.58
2022-10-24T13:58:44.232Z,13.28
2022-10-24T13:59:49.130Z,13.04
2022-10-24T14:01:00.766Z,12.21
2022-10-24T14:02:09.508Z,11.86
2022-10-24T14:03:15.955Z,13.63
2022-10-24T14:04:18.617Z,11.96
2022-10-24T14:05:31.678Z,10.68
2022-10-24T14:06:34.650Z,12.91
2022-10-24T14:07:37.818Z,13.32
2022-10-24T14:09:01.428Z,13.08
2022-10-24T14:10:09.258Z,13.43
2022-10-24T14:11:23.484Z,13.34
2022-10-24T14:12:28.524Z,12.00
2022-10-24T14:13:34.704Z,12.22
2022-10-24T14:14:39.101Z,12.94
2022-10-24T14:15:50.281Z,14.44
2022-10-24T14:17:23.258Z,14.84
2022-10-24T14:18:24.402Z,15.06
2022-10-24T14:19:29.792Z,16.40
2022-10-24T14:20:37.857Z,14.88
2022-10-24T14:21:42.035Z,13.24
2022-10-24T14:22:44.872Z,12.65
2022-10-24T14:23:58.729Z,13.02
2022-10-24T14:25:01.192Z,13.04
2022-10-24T14:26:15.928Z,13.30
2022-10-24T14:27:19.692Z,12.62
2022-10-24T14:28:24.892Z,12.28
2022-10-24T14:29:31.382Z,12.21
2022-10-24T14:30:35.045Z,12.14
2022-10-24T14:31:37.676Z,12.95
2022-10-24T14:32:39.865Z,13.69
2022-10-24T14:33:45.625Z,13.43
2022-10-24T14:34:49.409Z,12.68
2022-10-24T14:35:57.863Z,13.79
2022-10-24T14:37:06.367Z,14.41
2022-10-24T14:38:12.384Z,16.29
2022-10-24T14:39:24.774Z,15.72
2022-10-24T14:41:35.307Z,13.97
2022-10-24T14:42:38.750Z,15.30
2022-10-24T14:43:43.302Z,14.48
2022-10-24T14:44:46.211Z,15.09
2022-10-24T14:46:08.801Z,14.74
2022-10-24T14:47:30.362Z,16.67
2022-10-24T14:49:36.872Z,26.16
2022-10-24T14:50:45.419Z,30.89
2022-10-24T14:52:55.883Z,30.32
2022-10-24T14:53:58.828Z,28.80
2022-10-24T14:55:08.020Z,22.14
2022-10-24T14:56:19.750Z,18.28
2022-10-24T14:57:23.989Z,14.85
2022-10-24T14:58:31.401Z,11.81
2022-10-24T14:59:37.894Z,11.60
2022-10-24T15:00:41.584Z,11.07
2022-10-24T15:03:05.968Z,10.83
2022-10-24T15:04:12.172Z,10.28
2022-10-24T15:05:24.228Z,9.69
2022-10-24T15:06:41.282Z,10.33
2022-10-24T15:07:57.197Z,10.84
2022-10-24T15:08:51.611Z,10.88
2022-10-24T15:10:00.025Z,11.45
2022-10-24T15:11:05.487Z,10.44
2022-10-24T15:12:11.345Z,10.76
2022-10-24T15:13:19.984Z,12.31